Time;durP1;ratioP1;P1;durP2;ratioP2;P2;SDS_P1;SDS_P2;PMS_P1;PMS_P2;Temp;Humidity;BMP_temperature;BMP_pressure;BME280_temperature;BME280_humidity;BME280_pressure;Samples;Min_cycle;Max_cycle;Signal;HPM_P1;HPM_P2
2022/08/30 00:02:20;;;;;;;;;;;16.00;99.90;;;;;;5083812;28;19962;-70
2022/08/30 00:04:50;;;;;;;;;;;16.00;99.90;;;;;;5083751;28;20128;-70
2022/08/30 00:07:16;;;;;;;;;;;16.00;99.90;;;;;;5083468;28;20007;-70
2022/08/30 00:09:43;;;;;;;;;;;16.00;99.90;;;;;;5083658;28;19929;-70
2022/08/30 00:12:10;;;;;;;;;;;16.00;99.90;;;;;;5083854;28;19921;-69
2022/08/30 00:14:37;;;;;;;;;;;16.00;99.90;;;;;;5083351;28;19966;-69
2022/08/30 00:17:04;;;;;;;;;;;16.00;99.90;;;;;;5083841;28;20004;-69
2022/08/30 00:19:32;;;;;;;;;;;16.00;99.90;;;;;;5083887;28;19928;-69
2022/08/30 00:21:58;;;;;;;;;;;16.00;99.90;;;;;;5084011;28;19920;-69
2022/08/30 00:24:25;;;;;;;;;;;16.00;99.90;;;;;;5083706;28;19927;-69
2022/08/30 00:26:52;;;;;;;;;;;16.00;99.90;;;;;;5083376;28;19987;-70
2022/08/30 00:29:19;;;;;;;;;;;16.00;99.90;;;;;;5083576;28;19987;-69
2022/08/30 00:31:45;;;;;;;;;;;16.00;99.90;;;;;;5083256;28;20093;-70
2022/08/30 00:34:12;;;;;;;;;;;15.90;99.90;;;;;;5083298;28;19991;-69
2022/08/30 00:36:40;;;;;;;;;;;15.90;99.90;;;;;;5083240;28;19979;-69
2022/08/30 00:39:07;;;;;;;;;;;15.90;99.90;;;;;;5083265;28;20115;-70
2022/08/30 00:41:34;;;;;;;;;;;15.80;99.90;;;;;;5083559;28;20112;-70
2022/08/30 00:44:01;;;;;;;;;;;15.80;99.90;;;;;;5083344;28;19921;-69
2022/08/30 00:46:27;;;;;;;;;;;15.80;99.90;;;;;;5083003;28;20004;-69
2022/08/30 00:48:55;;;;;;;;;;;15.70;99.90;;;;;;5083246;28;19921;-70
2022/08/30 00:51:25;;;;;;;;;;;15.70;99.90;;;;;;5083024;28;20034;-70
2022/08/30 00:53:54;;;;;;;;;;;15.70;99.90;;;;;;5083212;28;19988;-71
2022/08/30 00:56:22;;;;;;;;;;;15.60;99.90;;;;;;5083019;28;20239;-71
2022/08/30 00:58:50;;;;;;;;;;;15.60;99.90;;;;;;5083088;28;20179;-70
2022/08/30 01:01:17;;;;;;;;;;;15.60;99.90;;;;;;5082818;28;19983;-71
2022/08/30 01:03:43;;;;;;;;;;;15.50;99.90;;;;;;5082996;28;19988;-71
2022/08/30 01:06:10;;;;;;;;;;;15.50;99.90;;;;;;5082895;28;19987;-71
2022/08/30 01:08:37;;;;;;;;;;;15.50;99.90;;;;;;5083266;28;19928;-71
2022/08/30 01:11:05;;;;;;;;;;;15.50;99.90;;;;;;5086952;28;19920;-71
2022/08/30 01:13:33;;;;;;;;;;;15.30;99.90;;;;;;5086350;28;20366;-71
2022/08/30 01:16:00;;;;;;;;;;;15.30;99.90;;;;;;5086667;28;19991;-71
2022/08/30 01:18:27;;;;;;;;;;;15.20;99.90;;;;;;5086710;28;19921;-71
2022/08/30 01:21:00;;;;;;;;;;;15.20;99.90;;;;;;5086461;28;19935;-71
2022/08/30 01:23:28;;;;;;;;;;;15.20;99.90;;;;;;5086277;28;19942;-71
2022/08/30 01:25:55;;;;;;;;;;;15.30;99.90;;;;;;5086633;28;19958;-71
2022/08/30 01:28:24;;;;;;;;;;;15.30;99.90;;;;;;5086696;28;19990;-71
2022/08/30 01:30:51;;;;;;;;;;;15.30;99.90;;;;;;5086493;28;20295;-72
2022/08/30 01:33:18;;;;;;;;;;;15.30;99.90;;;;;;5085980;28;19952;-71
2022/08/30 01:35:47;;;;;;;;;;;15.30;99.90;;;;;;5086258;28;19927;-71
2022/08/30 01:38:15;;;;;;;;;;;15.40;99.90;;;;;;5086420;28;19920;-71
2022/08/30 01:40:43;;;;;;;;;;;15.40;99.90;;;;;;5086177;28;20227;-71
2022/08/30 01:43:11;;;;;;;;;;;15.40;99.90;;;;;;5085846;28;19928;-70
2022/08/30 01:45:37;;;;;;;;;;;15.40;99.90;;;;;;5086210;28;19963;-71
2022/08/30 01:48:04;;;;;;;;;;;15.50;99.90;;;;;;5085897;28;19983;-71
2022/08/30 01:50:31;;;;;;;;;;;15.50;99.90;;;;;;5086049;28;20166;-71
2022/08/30 01:52:58;;;;;;;;;;;15.50;99.90;;;;;;5085805;28;19988;-71
2022/08/30 01:55:24;;;;;;;;;;;15.50;99.90;;;;;;5086179;28;19920;-71
2022/08/30 01:57:52;;;;;;;;;;;15.50;99.90;;;;;;5085825;28;19987;-70
2022/08/30 02:00:23;;;;;;;;;;;15.60;99.90;;;;;;5085631;28;19991;-71
2022/08/30 02:02:52;;;;;;;;;;;15.60;99.90;;;;;;5085403;28;19987;-71
2022/08/30 02:05:18;;;;;;;;;;;15.50;99.90;;;;;;5085673;28;19920;-71
2022/08/30 02:07:45;;;;;;;;;;;15.40;99.90;;;;;;5086036;28;20000;-71
2022/08/30 02:10:13;;;;;;;;;;;15.40;99.90;;;;;;5085747;28;19920;-71
2022/08/30 02:12:40;;;;;;;;;;;15.30;99.90;;;;;;5085499;28;19962;-72
2022/08/30 02:15:09;;;;;;;;;;;15.30;99.90;;;;;;5085730;28;19987;-71
2022/08/30 02:17:36;;;;;;;;;;;15.30;99.90;;;;;;5085433;28;19927;-70
2022/08/30 02:20:04;;;;;;;;;;;15.30;99.90;;;;;;5085047;28;19958;-71
2022/08/30 02:22:30;;;;;;;;;;;15.30;99.90;;;;;;5085540;28;19991;-71
2022/08/30 02:24:57;;;;;;;;;;;15.30;99.90;;;;;;5085336;28;19924;-72
2022/08/30 02:27:25;;;;;;;;;;;15.30;99.90;;;;;;5085224;28;19979;-71
2022/08/30 02:29:51;;;;;;;;;;;15.30;99.90;;;;;;5085425;28;19958;-71
2022/08/30 02:32:19;;;;;;;;;;;15.30;99.90;;;;;;5084966;28;20111;-71
2022/08/30 02:34:46;;;;;;;;;;;15.20;99.90;;;;;;5085032;28;19943;-71
2022/08/30 02:37:14;;;;;;;;;;;15.20;99.90;;;;;;5085318;28;19920;-71
2022/08/30 02:39:41;;;;;;;;;;;15.20;99.90;;;;;;5085337;28;19965;-74
2022/08/30 02:42:07;;;;;;;;;;;15.20;99.90;;;;;;5084913;28;19920;-71
2022/08/30 02:44:34;;;;;;;;;;;15.20;99.90;;;;;;5084976;28;19951;-71
2022/08/30 02:47:01;;;;;;;;;;;15.20;99.90;;;;;;5084363;28;19979;-70
2022/08/30 02:49:29;;;;;;;;;;;15.20;99.90;;;;;;5083925;28;20118;-71
2022/08/30 02:51:55;;;;;;;;;;;15.20;99.90;;;;;;5084619;28;19991;-71
2022/08/30 02:54:22;;;;;;;;;;;15.20;99.90;;;;;;5084704;28;19927;-71
2022/08/30 02:56:49;;;;;;;;;;;15.20;99.90;;;;;;5085061;28;19927;-71
2022/08/30 02:59:17;;;;;;;;;;;15.10;99.90;;;;;;5084537;28;20208;-71
2022/08/30 03:01:43;;;;;;;;;;;15.10;99.90;;;;;;5084829;28;19966;-71
2022/08/30 03:04:10;;;;;;;;;;;15.20;99.90;;;;;;5084355;28;19920;-70
2022/08/30 03:06:38;;;;;;;;;;;15.20;99.90;;;;;;5084520;28;19987;-71
2022/08/30 03:09:05;;;;;;;;;;;15.20;99.90;;;;;;5084686;28;19959;-71
2022/08/30 03:11:32;;;;;;;;;;;15.10;99.90;;;;;;5084581;28;19956;-71
2022/08/30 03:13:59;;;;;;;;;;;15.10;99.90;;;;;;5084346;28;19958;-71
2022/08/30 03:16:26;;;;;;;;;;;15.10;99.90;;;;;;5084265;28;19927;-71
2022/08/30 03:18:53;;;;;;;;;;;15.10;99.90;;;;;;5084459;28;19958;-71
2022/08/30 03:21:19;;;;;;;;;;;15.10;99.90;;;;;;5084385;28;20004;-71
2022/08/30 03:23:47;;;;;;;;;;;15.10;99.90;;;;;;5084304;28;19987;-72
2022/08/30 03:26:14;;;;;;;;;;;15.00;99.90;;;;;;5083955;28;19983;-71
2022/08/30 03:28:41;;;;;;;;;;;15.10;99.90;;;;;;5084043;28;20219;-71
2022/08/30 03:31:09;;;;;;;;;;;15.10;99.90;;;;;;5083691;28;19927;-71
2022/08/30 03:33:36;;;;;;;;;;;15.10;99.90;;;;;;5083947;28;19951;-71
2022/08/30 03:36:03;;;;;;;;;;;15.10;99.90;;;;;;5084051;28;20200;-71
2022/08/30 03:38:30;;;;;;;;;;;15.10;99.90;;;;;;5084188;28;19920;-71
2022/08/30 03:40:58;;;;;;;;;;;15.10;99.90;;;;;;5084739;28;19920;-72
2022/08/30 03:43:25;;;;;;;;;;;15.00;99.90;;;;;;5083922;28;19951;-72
2022/08/30 03:45:51;;;;;;;;;;;15.10;99.90;;;;;;5084092;28;19962;-72
2022/08/30 03:48:18;;;;;;;;;;;15.10;99.90;;;;;;5083763;28;19920;-71
2022/08/30 03:50:44;;;;;;;;;;;15.00;99.90;;;;;;5083542;28;19920;-71
2022/08/30 03:53:11;;;;;;;;;;;15.00;99.90;;;;;;5083571;28;19926;-72
2022/08/30 03:55:38;;;;;;;;;;;15.00;99.90;;;;;;5084138;28;20174;-71
2022/08/30 03:58:06;;;;;;;;;;;15.00;99.90;;;;;;5083759;28;20413;-72
2022/08/30 04:00:32;;;;;;;;;;;15.00;99.90;;;;;;5083842;28;19983;-71
2022/08/30 04:02:59;;;;;;;;;;;15.00;99.90;;;;;;5083350;28;19979;-71
2022/08/30 04:05:27;;;;;;;;;;;15.00;99.90;;;;;;5083591;28;19920;-70
2022/08/30 04:07:53;;;;;;;;;;;15.00;99.90;;;;;;5083921;28;19921;-72
2022/08/30 04:10:21;;;;;;;;;;;15.00;99.90;;;;;;5083881;28;19951;-71
2022/08/30 04:12:48;;;;;;;;;;;15.00;99.90;;;;;;5083184;28;20212;-72
2022/08/30 04:15:16;;;;;;;;;;;15.00;99.90;;;;;;5083585;28;19963;-71
2022/08/30 04:17:43;;;;;;;;;;;15.00;99.90;;;;;;5083556;28;19988;-71
2022/08/30 04:20:10;;;;;;;;;;;15.00;99.90;;;;;;5106321;22;20118;-68
2022/08/30 04:22:36;;;;;;;;;;;14.90;99.90;;;;;;5083419;28;19928;-68
2022/08/30 04:25:03;;;;;;;;;;;14.90;99.90;;;;;;5082611;28;19924;-68
2022/08/30 04:27:30;;;;;;;;;;;14.90;99.90;;;;;;5083100;28;19952;-75
2022/08/30 04:29:56;;;;;;;;;;;14.90;99.90;;;;;;5083371;28;19921;-70
2022/08/30 04:32:25;;;;;;;;;;;14.90;99.90;;;;;;5082149;28;20215;-70
2022/08/30 04:34:55;;;;;;;;;;;14.90;99.90;;;;;;5082718;28;19959;-70
2022/08/30 04:37:22;;;;;;;;;;;14.90;99.90;;;;;;5079099;28;20164;-70
2022/08/30 04:39:49;;;;;;;;;;;14.90;99.90;;;;;;5082970;28;20242;-70
2022/08/30 04:42:17;;;;;;;;;;;14.90;99.90;;;;;;5082815;28;19924;-71
2022/08/30 04:44:43;;;;;;;;;;;14.90;99.90;;;;;;5085719;28;19931;-70
2022/08/30 04:47:10;;;;;;;;;;;14.90;99.90;;;;;;5087084;28;19947;-71
2022/08/30 04:49:38;;;;;;;;;;;15.00;99.90;;;;;;5085497;28;19921;-70
2022/08/30 04:52:07;;;;;;;;;;;15.00;99.90;;;;;;5086880;28;19988;-70
2022/08/30 04:54:34;;;;;;;;;;;15.00;99.90;;;;;;5086021;28;19948;-69
2022/08/30 04:57:01;;;;;;;;;;;15.00;99.90;;;;;;5086693;28;19948;-70
2022/08/30 04:59:27;;;;;;;;;;;15.00;99.90;;;;;;5086597;28;20115;-70
2022/08/30 05:01:54;;;;;;;;;;;14.90;99.90;;;;;;5086359;28;19927;-70
2022/08/30 05:04:21;;;;;;;;;;;14.90;99.90;;;;;;5086057;28;19920;-70
2022/08/30 05:06:49;;;;;;;;;;;14.90;99.90;;;;;;5086298;28;20271;-70
2022/08/30 05:09:15;;;;;;;;;;;14.90;99.90;;;;;;5086774;28;19928;-70
2022/08/30 05:11:42;;;;;;;;;;;14.80;99.90;;;;;;5086242;28;20191;-70
2022/08/30 05:14:09;;;;;;;;;;;14.80;99.90;;;;;;5085854;28;19962;-70
2022/08/30 05:16:36;;;;;;;;;;;14.80;99.90;;;;;;5086041;28;19996;-70
2022/08/30 05:19:03;;;;;;;;;;;14.80;99.90;;;;;;5086097;28;19927;-70
2022/08/30 05:21:29;;;;;;;;;;;14.80;99.90;;;;;;5086599;28;19987;-70
2022/08/30 05:23:59;;;;;;;;;;;14.80;99.90;;;;;;5085636;28;19927;-69
2022/08/30 05:26:26;;;;;;;;;;;14.80;99.90;;;;;;5086008;28;19924;-69
2022/08/30 05:28:53;;;;;;;;;;;14.80;99.90;;;;;;5086122;28;19960;-69
2022/08/30 05:31:21;;;;;;;;;;;14.80;99.90;;;;;;5066974;28;19959;-70
2022/08/30 05:33:48;;;;;;;;;;;14.80;99.90;;;;;;5065563;28;19920;-70
2022/08/30 05:36:16;;;;;;;;;;;14.80;99.90;;;;;;5067518;28;20000;-71
2022/08/30 05:38:43;;;;;;;;;;;14.80;99.90;;;;;;5085949;28;19948;-70
2022/08/30 05:41:11;;;;;;;;;;;14.80;99.90;;;;;;5085606;28;19991;-70
2022/08/30 05:43:38;;;;;;;;;;;14.80;99.90;;;;;;5085344;28;19991;-69
2022/08/30 05:46:06;;;;;;;;;;;14.90;99.90;;;;;;5085957;28;19927;-70
2022/08/30 05:48:33;;;;;;;;;;;14.90;99.90;;;;;;5085788;28;19928;-69
2022/08/30 05:51:04;;;;;;;;;;;15.00;99.90;;;;;;5084796;28;19992;-69
2022/08/30 05:53:31;;;;;;;;;;;15.00;99.90;;;;;;5084892;28;19999;-69
2022/08/30 05:55:58;;;;;;;;;;;15.10;99.90;;;;;;5084896;28;19952;-70
2022/08/30 05:58:26;;;;;;;;;;;15.20;99.90;;;;;;5085865;28;19920;-69
2022/08/30 06:00:53;;;;;;;;;;;15.30;99.90;;;;;;5085548;28;19920;-70
2022/08/30 06:03:20;;;;;;;;;;;15.40;99.90;;;;;;5084891;28;20161;-69
2022/08/30 06:05:46;;;;;;;;;;;15.40;99.90;;;;;;5085303;28;19931;-69
2022/08/30 06:08:13;;;;;;;;;;;15.50;99.90;;;;;;5085357;28;19920;-70
2022/08/30 06:10:40;;;;;;;;;;;15.60;99.90;;;;;;5085466;28;19924;-70
2022/08/30 06:13:06;;;;;;;;;;;15.70;99.90;;;;;;5084802;28;19971;-70
2022/08/30 06:15:34;;;;;;;;;;;15.80;99.90;;;;;;5085543;28;19967;-69
2022/08/30 06:18:01;;;;;;;;;;;15.90;99.90;;;;;;5085764;28;20167;-69
2022/08/30 06:20:28;;;;;;;;;;;16.00;99.90;;;;;;5085289;28;20115;-69
2022/08/30 06:22:54;;;;;;;;;;;16.10;99.90;;;;;;5084440;28;19920;-69
2022/08/30 06:25:21;;;;;;;;;;;16.20;99.90;;;;;;5085124;28;20207;-69
2022/08/30 06:27:48;;;;;;;;;;;16.30;99.90;;;;;;5085483;28;20114;-69
2022/08/30 06:30:14;;;;;;;;;;;16.30;99.90;;;;;;5085428;28;20229;-69
2022/08/30 06:32:42;;;;;;;;;;;16.30;99.90;;;;;;5084397;28;19928;-69
2022/08/30 06:35:09;;;;;;;;;;;16.40;99.90;;;;;;5085308;28;19951;-69
2022/08/30 06:37:36;;;;;;;;;;;16.50;99.90;;;;;;5085066;28;19990;-69
2022/08/30 06:40:03;;;;;;;;;;;16.50;99.90;;;;;;5085021;28;19955;-69
2022/08/30 06:42:32;;;;;;;;;;;16.50;99.90;;;;;;5084886;28;19928;-70
2022/08/30 06:44:59;;;;;;;;;;;16.60;99.90;;;;;;5084805;28;19983;-69
2022/08/30 06:47:25;;;;;;;;;;;16.70;99.90;;;;;;5084691;28;19984;-69
2022/08/30 06:49:53;;;;;;;;;;;16.80;99.90;;;;;;5084549;28;19952;-69
2022/08/30 06:52:20;;;;;;;;;;;16.90;99.90;;;;;;5084962;28;19921;-69
2022/08/30 06:54:46;;;;;;;;;;;17.00;99.90;;;;;;5084158;28;20202;-69
2022/08/30 06:57:13;;;;;;;;;;;17.00;99.90;;;;;;5084693;28;20200;-69
2022/08/30 06:59:40;;;;;;;;;;;17.00;99.90;;;;;;5084395;28;20242;-69
2022/08/30 07:02:07;;;;;;;;;;;17.10;99.90;;;;;;5084539;28;20227;-68
2022/08/30 07:04:34;;;;;;;;;;;17.30;99.90;;;;;;5084103;28;19944;-69
2022/08/30 07:07:02;;;;;;;;;;;17.30;99.90;;;;;;5083851;28;19921;-70
2022/08/30 07:09:28;;;;;;;;;;;17.40;99.90;;;;;;5084392;28;19959;-70
2022/08/30 07:11:55;;;;;;;;;;;17.50;99.90;;;;;;5084315;28;19995;-69
2022/08/30 07:14:22;;;;;;;;;;;17.60;99.90;;;;;;5084056;28;19926;-71
2022/08/30 07:16:49;;;;;;;;;;;17.60;99.90;;;;;;5079614;28;19959;-70
2022/08/30 07:19:14;;;;;;;;;;;17.60;99.90;;;;;;5068149;28;19991;-69
2022/08/30 07:21:43;;;;;;;;;;;17.60;99.90;;;;;;5084455;28;19939;-71
2022/08/30 07:24:11;;;;;;;;;;;17.70;99.90;;;;;;5074524;28;19927;-69
2022/08/30 07:26:40;;;;;;;;;;;17.80;99.90;;;;;;5078554;28;20236;-69
2022/08/30 07:29:07;;;;;;;;;;;17.90;99.90;;;;;;5083961;28;19943;-70
2022/08/30 07:31:34;;;;;;;;;;;18.00;99.90;;;;;;5084148;28;20486;-70
2022/08/30 07:34:01;;;;;;;;;;;18.10;99.90;;;;;;5072714;28;19920;-69
2022/08/30 07:36:28;;;;;;;;;;;18.30;99.90;;;;;;5083814;28;19952;-69
2022/08/30 07:38:55;;;;;;;;;;;18.40;99.90;;;;;;5083517;28;19924;-68
2022/08/30 07:41:24;;;;;;;;;;;18.50;99.90;;;;;;5082582;28;20191;-69
2022/08/30 07:43:51;;;;;;;;;;;18.50;99.90;;;;;;5069193;28;19953;-69
2022/08/30 07:46:18;;;;;;;;;;;18.70;99.90;;;;;;5070585;28;19952;-69
2022/08/30 07:48:44;;;;;;;;;;;18.70;99.90;;;;;;5083769;28;19983;-69
2022/08/30 07:51:13;;;;;;;;;;;18.80;99.90;;;;;;5083921;28;19983;-69
2022/08/30 07:53:40;;;;;;;;;;;18.90;99.90;;;;;;5083177;28;19963;-69
2022/08/30 07:56:07;;;;;;;;;;;19.10;99.90;;;;;;5080946;28;19983;-69
2022/08/30 07:58:36;;;;;;;;;;;19.10;99.90;;;;;;5063824;28;19956;-69
2022/08/30 08:01:03;;;;;;;;;;;19.20;99.90;;;;;;5079549;28;19920;-69
2022/08/30 08:03:29;;;;;;;;;;;19.30;99.90;;;;;;5083074;28;19927;-69
2022/08/30 08:05:56;;;;;;;;;;;19.40;99.90;;;;;;5082993;28;19921;-69
2022/08/30 08:08:23;;;;;;;;;;;19.50;99.90;;;;;;5083678;28;19955;-69
2022/08/30 08:10:50;;;;;;;;;;;19.60;99.90;;;;;;5083071;28;19921;-69
2022/08/30 08:13:17;;;;;;;;;;;19.70;99.90;;;;;;5082845;28;19921;-69
2022/08/30 08:15:45;;;;;;;;;;;19.80;99.90;;;;;;5083446;28;19984;-69
2022/08/30 08:18:12;;;;;;;;;;;19.90;99.90;;;;;;5085724;28;20271;-69
2022/08/30 08:20:38;;;;;;;;;;;19.90;99.90;;;;;;5089908;28;19975;-69
2022/08/30 08:23:05;;;;;;;;;;;20.00;99.90;;;;;;5086485;28;19928;-69
2022/08/30 08:25:32;;;;;;;;;;;20.10;99.90;;;;;;5070132;28;19985;-69
2022/08/30 08:27:58;;;;;;;;;;;20.20;99.90;;;;;;5069925;28;20168;-68
2022/08/30 08:30:25;;;;;;;;;;;20.20;99.90;;;;;;5069850;28;19988;-68
2022/08/30 08:32:53;;;;;;;;;;;20.30;99.90;;;;;;5069245;28;19971;-67
2022/08/30 08:35:20;;;;;;;;;;;20.40;99.90;;;;;;5069442;28;19956;-67
2022/08/30 08:37:46;;;;;;;;;;;20.50;99.90;;;;;;5069595;28;19927;-67
2022/08/30 08:40:15;;;;;;;;;;;20.70;99.90;;;;;;5069405;28;19964;-67
2022/08/30 08:42:48;;;;;;;;;;;20.70;99.90;;;;;;5072901;28;19951;-66
2022/08/30 08:45:19;;;;;;;;;;;20.80;99.90;;;;;;5089640;28;19960;-67
2022/08/30 08:47:54;;;;;;;;;;;20.90;99.90;;;;;;5089496;28;19955;-67
2022/08/30 08:50:23;;;;;;;;;;;21.00;99.90;;;;;;5089287;28;19963;-66
2022/08/30 08:55:37;;;;;;;;;;;21.10;99.90;;;;;;5088934;28;19932;-67
2022/08/30 08:58:04;;;;;;;;;;;21.30;99.90;;;;;;5089680;28;19924;-67
2022/08/30 09:00:31;;;;;;;;;;;21.40;99.90;;;;;;5089604;28;19927;-66
2022/08/30 09:02:59;;;;;;;;;;;21.40;99.90;;;;;;5089032;28;19966;-67
2022/08/30 09:05:29;;;;;;;;;;;21.60;99.90;;;;;;5089753;28;19926;-69
2022/08/30 09:07:58;;;;;;;;;;;21.70;99.90;;;;;;5089567;28;19959;-67
2022/08/30 09:10:25;;;;;;;;;;;21.70;99.90;;;;;;5089349;28;20224;-67
2022/08/30 09:12:52;;;;;;;;;;;21.80;99.90;;;;;;5088958;28;20004;-68
2022/08/30 09:15:24;;;;;;;;;;;21.90;99.90;;;;;;5089129;28;19921;-68
2022/08/30 09:17:52;;;;;;;;;;;22.00;99.90;;;;;;5085994;28;19956;-69
2022/08/30 09:20:24;;;;;;;;;;;22.10;99.90;;;;;;5088280;28;20247;-69
2022/08/30 09:22:53;;;;;;;;;;;22.20;99.90;;;;;;5087517;28;19920;-69
2022/08/30 09:25:21;;;;;;;;;;;22.30;99.90;;;;;;5067674;28;20352;-69
2022/08/30 09:27:49;;;;;;;;;;;22.30;99.90;;;;;;5068879;28;19928;-68
2022/08/30 09:30:17;;;;;;;;;;;22.30;99.90;;;;;;5065889;28;19921;-67
2022/08/30 09:32:49;;;;;;;;;;;22.40;99.90;;;;;;5064738;28;19987;-66
2022/08/30 09:35:17;;;;;;;;;;;22.50;99.90;;;;;;5065645;28;20441;-66
2022/08/30 09:37:46;;;;;;;;;;;22.50;99.90;;;;;;5077390;28;19960;-66
2022/08/30 09:40:22;;;;;;;;;;;22.60;99.90;;;;;;5085931;28;19921;-66
2022/08/30 09:42:59;;;;;;;;;;;22.70;99.90;;;;;;5085304;28;19928;-67
2022/08/30 09:45:30;;;;;;;;;;;22.70;99.90;;;;;;5085938;28;19978;-66
2022/08/30 09:47:57;;;;;;;;;;;22.70;99.90;;;;;;5085909;28;19983;-66
2022/08/30 09:50:24;;;;;;;;;;;22.80;99.90;;;;;;5085720;28;19965;-67
2022/08/30 09:52:55;;;;;;;;;;;22.80;99.90;;;;;;5085154;28;19921;-68
2022/08/30 09:55:31;;;;;;;;;;;22.90;99.90;;;;;;5084594;28;20011;-68
2022/08/30 09:58:03;;;;;;;;;;;23.00;99.90;;;;;;5085778;28;20190;-68
2022/08/30 10:00:33;;;;;;;;;;;23.20;99.90;;;;;;5085191;28;20103;-68
2022/08/30 10:03:07;;;;;;;;;;;23.30;99.90;;;;;;5077967;28;19924;-68
2022/08/30 10:05:36;;;;;;;;;;;23.40;99.90;;;;;;5073250;28;19951;-68
2022/08/30 10:08:09;;;;;;;;;;;23.40;99.90;;;;;;5085330;28;19987;-69
2022/08/30 10:10:40;;;;;;;;;;;23.60;99.90;;;;;;5083074;28;20174;-69
2022/08/30 10:13:14;;;;;;;;;;;23.60;99.90;;;;;;5080694;28;19978;-70
2022/08/30 10:15:44;;;;;;;;;;;23.70;99.90;;;;;;5083323;28;19927;-68
2022/08/30 10:18:14;;;;;;;;;;;23.80;99.90;;;;;;5084080;28;20182;-69
2022/08/30 10:20:53;;;;;;;;;;;23.80;99.90;;;;;;5124772;22;19984;-69
2022/08/30 10:23:22;;;;;;;;;;;23.90;99.90;;;;;;5078685;28;19966;-68
2022/08/30 10:25:53;;;;;;;;;;;24.00;99.90;;;;;;5084375;28;20204;-69
2022/08/30 10:28:24;;;;;;;;;;;24.00;99.90;;;;;;5068208;28;20077;-68
2022/08/30 10:30:54;;;;;;;;;;;24.10;99.90;;;;;;5081373;28;20175;-69
2022/08/30 10:33:24;;;;;;;;;;;24.10;99.90;;;;;;5071380;28;19959;-69
2022/08/30 10:35:54;;;;;;;;;;;24.30;99.90;;;;;;5079113;28;19988;-70
2022/08/30 10:38:23;;;;;;;;;;;24.30;99.90;;;;;;5084807;28;19921;-70
2022/08/30 10:43:52;;;;;;;;;;;24.50;99.90;;;;;;5082537;28;19963;-69
2022/08/30 10:46:21;;;;;;;;;;;24.60;99.90;;;;;;5083669;28;19983;-70
2022/08/30 10:48:48;;;;;;;;;;;24.70;99.90;;;;;;5084686;28;19987;-69
2022/08/30 10:51:20;;;;;;;;;;;24.80;99.90;;;;;;5084583;28;19920;-70
2022/08/30 10:53:48;;;;;;;;;;;24.90;99.90;;;;;;5063961;28;19928;-69
2022/08/30 10:56:19;;;;;;;;;;;25.00;99.90;;;;;;5068894;28;19984;-70
2022/08/30 10:58:46;;;;;;;;;;;25.10;99.90;;;;;;5064682;28;19921;-69
2022/08/30 11:01:22;;;;;;;;;;;25.20;99.90;;;;;;5071338;28;19980;-69
2022/08/30 11:03:57;;;;;;;;;;;25.30;99.90;;;;;;5082610;28;19984;-69
2022/08/30 11:06:27;;;;;;;;;;;25.40;99.90;;;;;;5083690;28;20231;-70
2022/08/30 11:09:06;;;;;;;;;;;25.50;99.90;;;;;;5084333;28;19920;-70
2022/08/30 11:11:39;;;;;;;;;;;25.60;99.90;;;;;;5077689;28;19984;-70
2022/08/30 11:14:07;;;;;;;;;;;25.70;99.90;;;;;;5063679;28;19995;-69
2022/08/30 11:16:35;;;;;;;;;;;25.70;99.90;;;;;;5081786;28;20119;-69
2022/08/30 11:19:02;;;;;;;;;;;25.70;99.90;;;;;;5084217;28;19956;-70
2022/08/30 11:21:32;;;;;;;;;;;25.80;99.90;;;;;;5083618;28;20223;-69
2022/08/30 11:24:07;;;;;;;;;;;25.80;99.90;;;;;;5082997;28;20166;-69
2022/08/30 11:26:56;;;;;;;;;;;25.90;99.90;;;;;;5083996;28;19920;-70
2022/08/30 11:29:41;;;;;;;;;;;26.10;99.90;;;;;;5084008;28;19975;-70
2022/08/30 11:32:22;;;;;;;;;;;26.20;99.90;;;;;;5084131;28;19979;-69
2022/08/30 11:34:57;;;;;;;;;;;26.30;99.90;;;;;;5082900;28;19927;-70
2022/08/30 11:37:32;;;;;;;;;;;26.40;99.90;;;;;;5083498;28;20176;-74
2022/08/30 11:39:59;;;;;;;;;;;26.50;99.90;;;;;;5063459;28;19921;-68
2022/08/30 11:42:29;;;;;;;;;;;26.60;99.90;;;;;;5063349;28;20116;-68
2022/08/30 11:45:11;;;;;;;;;;;26.60;99.90;;;;;;5063117;28;20075;-68
2022/08/30 11:47:38;;;;;;;;;;;26.70;99.90;;;;;;5079446;28;19987;-67
2022/08/30 11:50:07;;;;;;;;;;;26.90;99.70;;;;;;5076725;28;19955;-70
2022/08/30 11:52:41;;;;;;;;;;;27.00;98.90;;;;;;5062628;28;19920;-69
2022/08/30 11:55:18;;;;;;;;;;;27.10;97.80;;;;;;5066553;28;20226;-69
2022/08/30 11:57:49;;;;;;;;;;;27.10;98.40;;;;;;5063142;28;19952;-70
2022/08/30 12:00:26;;;;;;;;;;;27.10;97.90;;;;;;5072401;28;19955;-70
2022/08/30 12:02:55;;;;;;;;;;;27.10;98.50;;;;;;5082853;28;19987;-67
2022/08/30 12:05:40;;;;;;;;;;;27.30;97.20;;;;;;5074612;28;19935;-66
2022/08/30 12:08:07;;;;;;;;;;;27.40;97.70;;;;;;5067235;28;19992;-66
2022/08/30 12:10:36;;;;;;;;;;;27.40;96.90;;;;;;5074842;28;19991;-68
2022/08/30 12:13:04;;;;;;;;;;;27.50;97.30;;;;;;5077665;28;19987;-68
2022/08/30 12:15:46;;;;;;;;;;;27.60;95.90;;;;;;5077248;28;19988;-69
2022/08/30 12:18:28;;;;;;;;;;;27.70;96.00;;;;;;5081990;28;19959;-68
2022/08/30 12:20:57;;;;;;;;;;;27.70;94.90;;;;;;5062882;28;19918;-67
2022/08/30 12:23:29;;;;;;;;;;;27.80;95.20;;;;;;5067549;28;19924;-70
2022/08/30 12:26:09;;;;;;;;;;;27.80;93.70;;;;;;5083459;28;19984;-70
2022/08/30 12:28:37;;;;;;;;;;;27.70;94.60;;;;;;5083119;28;19997;-69
2022/08/30 12:31:06;;;;;;;;;;;27.60;94.70;;;;;;5079907;28;19920;-69
2022/08/30 12:33:38;;;;;;;;;;;27.70;95.70;;;;;;5080456;28;20330;-69
2022/08/30 12:36:05;;;;;;;;;;;27.80;93.60;;;;;;5079647;28;19987;-70
2022/08/30 12:38:31;;;;;;;;;;;27.90;93.10;;;;;;5082293;28;19936;-70
2022/08/30 12:40:59;;;;;;;;;;;28.00;92.60;;;;;;5082669;28;19948;-70
2022/08/30 12:43:29;;;;;;;;;;;28.10;93.50;;;;;;5081012;28;19971;-69
2022/08/30 12:46:00;;;;;;;;;;;28.30;93.50;;;;;;5082252;28;20188;-70
2022/08/30 12:48:28;;;;;;;;;;;28.40;91.80;;;;;;5082636;28;20019;-70
2022/08/30 12:50:55;;;;;;;;;;;28.50;92.30;;;;;;5082243;28;19999;-69
2022/08/30 12:53:25;;;;;;;;;;;28.60;92.70;;;;;;5080803;28;19987;-68
2022/08/30 12:55:53;;;;;;;;;;;28.60;90.90;;;;;;5078837;28;19920;-69
2022/08/30 12:58:33;;;;;;;;;;;28.40;91.00;;;;;;5078369;28;20330;-67
2022/08/30 13:01:12;;;;;;;;;;;28.10;90.80;;;;;;5074423;28;19987;-69
2022/08/30 13:03:40;;;;;;;;;;;28.00;92.50;;;;;;5072966;28;20214;-70
2022/08/30 13:06:07;;;;;;;;;;;28.20;91.70;;;;;;5084677;28;19952;-70
2022/08/30 13:08:35;;;;;;;;;;;28.40;91.40;;;;;;5085612;28;19927;-69
2022/08/30 13:11:04;;;;;;;;;;;28.60;93.00;;;;;;5084739;28;20222;-70
2022/08/30 13:13:36;;;;;;;;;;;28.70;90.80;;;;;;5084795;28;20274;-70
2022/08/30 13:16:10;;;;;;;;;;;28.90;91.60;;;;;;5080063;28;19921;-70
2022/08/30 13:18:38;;;;;;;;;;;28.80;89.40;;;;;;5082734;28;20244;-70
2022/08/30 13:21:22;;;;;;;;;;;28.60;89.60;;;;;;5085554;28;19921;-70
2022/08/30 13:23:49;;;;;;;;;;;28.30;89.90;;;;;;5081963;28;19992;-69
2022/08/30 13:26:16;;;;;;;;;;;28.20;90.00;;;;;;5080720;28;19988;-70
2022/08/30 13:28:43;;;;;;;;;;;28.30;90.40;;;;;;5085801;28;19962;-69
2022/08/30 13:31:10;;;;;;;;;;;28.50;90.00;;;;;;5085697;28;19959;-70
2022/08/30 13:33:37;;;;;;;;;;;28.60;87.70;;;;;;5084728;28;19975;-69
2022/08/30 13:36:05;;;;;;;;;;;28.60;90.20;;;;;;5082937;28;20138;-67
2022/08/30 13:38:32;;;;;;;;;;;28.50;86.90;;;;;;5084918;28;19925;-70
2022/08/30 13:40:58;;;;;;;;;;;28.30;88.60;;;;;;5084750;28;19980;-68
2022/08/30 13:43:25;;;;;;;;;;;28.10;87.90;;;;;;5082895;28;19920;-68
2022/08/30 13:45:52;;;;;;;;;;;28.10;90.40;;;;;;5085368;28;20164;-69
2022/08/30 13:48:18;;;;;;;;;;;28.40;90.00;;;;;;5076690;28;21112;-70
2022/08/30 13:50:45;;;;;;;;;;;28.60;88.60;;;;;;5083789;28;19939;-69
2022/08/30 13:53:13;;;;;;;;;;;28.70;88.70;;;;;;5084724;28;19921;-69
2022/08/30 13:55:41;;;;;;;;;;;28.80;88.70;;;;;;5084743;28;19991;-69
2022/08/30 13:58:07;;;;;;;;;;;28.80;85.40;;;;;;5084845;28;19983;-69
2022/08/30 14:00:34;;;;;;;;;;;28.70;85.40;;;;;;5082373;28;19928;-70
2022/08/30 14:03:01;;;;;;;;;;;28.70;86.20;;;;;;5084754;28;19920;-70
2022/08/30 14:05:29;;;;;;;;;;;28.70;88.50;;;;;;5083447;28;19984;-69
2022/08/30 14:07:56;;;;;;;;;;;28.70;86.40;;;;;;5080663;28;20372;-70
2022/08/30 14:10:25;;;;;;;;;;;28.60;84.30;;;;;;5085456;28;19955;-70
2022/08/30 14:12:52;;;;;;;;;;;28.60;84.30;;;;;;5069798;28;20021;-70
2022/08/30 14:15:18;;;;;;;;;;;28.40;84.40;;;;;;5082105;28;19983;-69
2022/08/30 14:17:45;;;;;;;;;;;28.10;84.20;;;;;;5084216;28;19959;-70
2022/08/30 14:20:12;;;;;;;;;;;27.90;86.60;;;;;;5081350;28;19970;-70
2022/08/30 14:22:39;;;;;;;;;;;27.60;88.50;;;;;;5083430;28;19951;-70
2022/08/30 14:25:06;;;;;;;;;;;27.40;88.20;;;;;;5083860;28;19960;-70
2022/08/30 14:27:34;;;;;;;;;;;27.20;89.20;;;;;;5084488;28;19983;-70
2022/08/30 14:30:00;;;;;;;;;;;27.10;89.30;;;;;;5084429;28;19991;-70